createdAt,value
2023-02-16T00:00:39.307Z,93128.75
2023-02-16T00:03:14.811Z,93130.56
2023-02-16T00:05:48.265Z,93130.16
2023-02-16T00:08:21.328Z,93125.41
2023-02-16T00:11:11.594Z,93126.59
2023-02-16T00:13:43.993Z,93125.22
2023-02-16T00:16:18.794Z,93130.31
2023-02-16T00:18:52.053Z,93119.88
2023-02-16T00:21:24.442Z,93116.94
2023-02-16T00:23:57.547Z,93122.03
2023-02-16T00:26:33.868Z,93121.06
2023-02-16T00:29:06.774Z,93113.19
2023-02-16T00:31:39.405Z,93111.00
2023-02-16T00:34:36.388Z,93112.59
2023-02-16T00:37:10.604Z,93115.34
2023-02-16T00:39:44.558Z,93114.13
2023-02-16T00:42:20.565Z,93110.59
2023-02-16T00:44:55.429Z,93110.41
2023-02-16T00:47:32.331Z,93111.19
2023-02-16T00:50:13.934Z,93112.94
2023-02-16T00:52:47.748Z,93116.09
2023-02-16T00:55:23.053Z,93111.97
2023-02-16T00:58:01.397Z,93106.63
2023-02-16T01:00:36.334Z,93116.66
2023-02-16T01:03:14.188Z,93113.31
2023-02-16T01:05:46.982Z,93109.75
2023-02-16T01:08:38.212Z,93114.25
2023-02-16T01:11:12.007Z,93114.25
2023-02-16T01:13:48.634Z,93110.13
2023-02-16T01:16:23.355Z,93104.97
2023-02-16T01:18:55.756Z,93112.47
2023-02-16T01:21:28.259Z,93103.41
2023-02-16T01:24:00.957Z,93102.63
2023-02-16T01:26:38.832Z,93096.19
2023-02-16T01:29:13.881Z,93098.69
2023-02-16T01:31:47.788Z,93092.13
2023-02-16T01:34:20.265Z,93088.00
2023-02-16T01:36:52.669Z,93080.91
2023-02-16T01:39:25.019Z,93083.25
2023-02-16T01:42:11.207Z,93081.28
2023-02-16T01:44:48.627Z,93079.53
2023-02-16T01:47:36.125Z,93077.69
2023-02-16T01:50:16.637Z,93058.56
2023-02-16T01:52:55.396Z,93072.63
2023-02-16T01:55:32.333Z,93072.41
2023-02-16T01:58:11.465Z,93069.66
2023-02-16T02:01:23.443Z,93070.66
2023-02-16T02:04:14.162Z,93073.38
2023-02-16T02:06:47.146Z,93067.09
2023-02-16T02:09:25.874Z,93072.41
2023-02-16T02:12:06.052Z,93067.91
2023-02-16T02:14:40.399Z,93066.50
2023-02-16T02:17:17.393Z,93061.78
2023-02-16T02:19:56.824Z,93075.53
2023-02-16T02:23:24.947Z,93060.38
2023-02-16T02:26:43.451Z,93066.44
2023-02-16T02:29:29.190Z,93057.16
2023-02-16T02:32:10.886Z,93056.91
2023-02-16T02:35:00.131Z,93055.34
2023-02-16T02:37:44.117Z,93051.03
2023-02-16T02:40:29.873Z,93055.59
2023-02-16T02:43:11.141Z,93055.78
2023-02-16T02:45:49.443Z,93051.09
2023-02-16T02:48:22.226Z,93047.91
2023-02-16T02:51:16.104Z,93061.44
2023-02-16T02:54:14.365Z,93059.44
2023-02-16T02:57:16.082Z,93059.25
2023-02-16T03:00:12.963Z,93058.69
2023-02-16T03:02:49.346Z,93064.56
2023-02-16T03:05:25.755Z,93059.28
2023-02-16T03:08:13.379Z,93064.56
2023-02-16T03:11:07.333Z,93063.56
2023-02-16T03:13:44.207Z,93068.88
2023-02-16T03:16:21.393Z,93063.75
2023-02-16T03:19:14.359Z,93062.31
2023-02-16T03:22:04.792Z,93063.53
2023-02-16T03:24:55.436Z,93061.78
2023-02-16T03:27:51.642Z,93072.41
2023-02-16T03:30:25.708Z,93052.94
2023-02-16T03:32:58.180Z,93060.38
2023-02-16T03:35:31.730Z,93056.84
2023-02-16T03:38:04.763Z,93050.59
2023-02-16T03:40:40.334Z,93055.88
2023-02-16T03:43:12.695Z,93052.72
2023-02-16T03:45:45.696Z,93052.50
2023-02-16T03:48:18.253Z,93050.94
2023-02-16T03:50:51.291Z,93050.41
2023-02-16T03:53:23.701Z,93044.31
2023-02-16T03:55:56.305Z,93042.28
2023-02-16T03:58:28.766Z,93047.81
2023-02-16T04:01:01.387Z,93045.81
2023-02-16T04:03:33.789Z,93038.56
2023-02-16T04:06:07.736Z,93034.44
2023-02-16T04:08:40.063Z,93034.22
2023-02-16T04:11:30.561Z,93024.63
2023-02-16T04:14:02.887Z,93021.69
2023-02-16T04:16:35.390Z,93033.41
2023-02-16T04:19:07.832Z,93024.31
2023-02-16T04:21:42.305Z,93028.19
2023-02-16T04:24:14.677Z,93030.72
2023-02-16T04:26:48.787Z,93020.53
2023-02-16T04:29:21.136Z,93022.09
2023-02-16T04:31:53.754Z,93020.34
2023-02-16T04:34:26.160Z,93018.38
2023-02-16T04:36:59.288Z,93020.94
2023-02-16T04:39:31.911Z,93018.03
2023-02-16T04:42:04.711Z,93019.59
2023-02-16T04:44:37.032Z,93024.25
2023-02-16T04:47:09.458Z,93024.84
2023-02-16T04:49:41.840Z,93029.22
2023-02-16T04:52:14.917Z,93028.97
2023-02-16T04:54:47.381Z,93030.72
2023-02-16T04:57:21.870Z,93034.09
2023-02-16T04:59:54.609Z,93025.88
2023-02-16T05:02:27.334Z,93039.47
2023-02-16T05:04:59.692Z,93037.75
2023-02-16T05:07:32.817Z,93034.63
2023-02-16T05:10:06.502Z,93040.16
2023-02-16T05:12:56.900Z,93035.00
2023-02-16T05:15:29.265Z,93043.69
2023-02-16T05:18:02.791Z,93038.56
2023-02-16T05:21:05.091Z,93050.16
2023-02-16T05:23:38.725Z,93044.84
2023-02-16T05:26:11.069Z,93051.53
2023-02-16T05:28:43.525Z,93051.31
2023-02-16T05:31:15.970Z,93054.28
2023-02-16T05:33:48.702Z,93061.94
2023-02-16T05:36:21.329Z,93056.44
2023-02-16T05:38:54.479Z,93058.03
2023-02-16T05:41:26.981Z,93061.53
2023-02-16T05:44:02.387Z,93060.78
2023-02-16T05:46:36.570Z,93065.72
2023-02-16T05:49:09.558Z,93066.69
2023-02-16T05:51:42.032Z,93063.97
2023-02-16T05:54:16.874Z,93061.41
2023-02-16T05:56:51.377Z,93063.56
2023-02-16T05:59:24.005Z,93070.22
2023-02-16T06:01:56.406Z,93070.47
2023-02-16T06:04:29.066Z,93082.19
2023-02-16T06:07:02.104Z,93078.81
2023-02-16T06:09:35.134Z,93082.75
2023-02-16T06:12:07.634Z,93086.88
2023-02-16T06:14:40.592Z,93093.03
2023-02-16T06:17:12.973Z,93096.75
2023-02-16T06:19:45.441Z,93090.09
2023-02-16T06:22:17.784Z,93102.63
2023-02-16T06:24:50.934Z,93102.09
2023-02-16T06:27:23.636Z,93099.09
2023-02-16T06:29:56.072Z,93106.75
2023-02-16T06:32:28.638Z,93095.34
2023-02-16T06:35:01.506Z,93099.94
2023-02-16T06:37:33.861Z,93101.94
2023-02-16T06:40:09.378Z,93107.88
2023-02-16T06:42:41.869Z,93103.19
2023-02-16T06:45:14.431Z,93104.75
2023-02-16T06:47:46.801Z,93102.16
2023-02-16T06:50:19.312Z,93108.50
2023-02-16T06:52:51.714Z,93111.13
2023-02-16T06:55:24.850Z,93112.34
2023-02-16T06:57:57.203Z,93108.81
2023-02-16T07:00:30.377Z,93104.75
2023-02-16T07:03:02.981Z,93113.44
2023-02-16T07:05:35.401Z,93099.34
2023-02-16T07:08:07.959Z,93094.41
2023-02-16T07:10:49.739Z,93091.66
2023-02-16T07:13:22.887Z,93085.25
2023-02-16T07:15:55.357Z,93080.75
2023-02-16T07:18:27.838Z,93080.41
2023-02-16T07:21:00.265Z,93076.66
2023-02-16T07:23:32.837Z,93078.66
2023-02-16T07:26:05.966Z,93069.66
2023-02-16T07:28:38.535Z,93069.09
2023-02-16T07:31:12.642Z,93068.31
2023-02-16T07:33:45.512Z,93066.34
2023-02-16T07:36:17.942Z,93073.84
2023-02-16T07:38:51.026Z,93067.31
2023-02-16T07:41:24.554Z,93059.44
2023-02-16T07:43:57.078Z,93065.69
2023-02-16T07:46:31.036Z,93061.09
2023-02-16T07:49:05.200Z,93066.53
2023-02-16T07:51:37.553Z,93070.66
2023-02-16T07:54:10.235Z,93073.31
2023-02-16T07:56:43.482Z,93070.00
2023-02-16T07:59:16.139Z,93072.88
2023-02-16T08:01:48.679Z,93068.59
2023-02-16T08:04:21.138Z,93080.28
2023-02-16T08:06:53.520Z,93076.97
2023-02-16T08:09:26.446Z,93083.94
2023-02-16T08:11:59.502Z,93079.38
2023-02-16T08:14:31.874Z,93092.47
2023-02-16T08:17:05.788Z,93084.41
2023-02-16T08:19:38.765Z,93093.53
2023-02-16T08:22:11.788Z,93086.50
2023-02-16T08:24:44.291Z,93088.78
2023-02-16T08:27:17.349Z,93094.66
2023-02-16T08:29:49.918Z,93096.25
2023-02-16T08:32:22.323Z,93096.72
2023-02-16T08:34:55.770Z,93102.00
2023-02-16T08:37:28.343Z,93099.00
2023-02-16T08:40:02.014Z,93103.38
2023-02-16T08:42:36.000Z,93107.09
2023-02-16T08:45:09.371Z,93097.13
2023-02-16T08:47:41.943Z,93096.69
2023-02-16T08:50:16.449Z,93094.78
2023-02-16T08:52:48.773Z,93091.03
2023-02-16T08:55:22.557Z,93096.81
2023-02-16T08:57:55.567Z,93095.22
2023-02-16T09:00:33.594Z,93093.03
2023-02-16T09:03:06.525Z,93097.81
2023-02-16T09:05:39.446Z,93096.97
2023-02-16T09:08:11.993Z,93092.94
2023-02-16T09:10:45.334Z,93095.47
2023-02-16T09:13:18.375Z,93096.00
2023-02-16T09:15:51.016Z,93090.81
2023-02-16T09:18:23.515Z,93090.03
2023-02-16T09:20:56.786Z,93087.41
2023-02-16T09:23:30.095Z,93086.28
2023-02-16T09:26:06.514Z,93089.56
2023-02-16T09:28:40.995Z,93084.47
2023-02-16T09:31:16.159Z,93089.34
2023-02-16T09:33:48.898Z,93083.81
2023-02-16T09:36:21.888Z,93073.94
2023-02-16T09:38:55.522Z,93081.41
2023-02-16T09:41:36.819Z,93078.88
2023-02-16T09:44:37.679Z,93071.31
2023-02-16T09:47:19.612Z,93070.13
2023-02-16T09:49:56.193Z,93072.66
2023-02-16T09:52:35.952Z,93071.03
2023-02-16T09:55:11.397Z,93067.50
2023-02-16T09:57:59.014Z,93058.03
2023-02-16T10:00:44.025Z,93058.38
2023-02-16T10:03:36.530Z,93058.22
2023-02-16T10:06:27.454Z,93052.06
2023-02-16T10:09:05.811Z,93047.75
2023-02-16T10:11:45.948Z,93044.84
2023-02-16T10:14:25.256Z,93050.59
2023-02-16T10:17:07.528Z,93042.78
2023-02-16T10:19:46.938Z,93045.44
2023-02-16T10:22:30.382Z,93043.44
2023-02-16T10:25:09.799Z,93049.91
2023-02-16T10:27:44.928Z,93049.41
2023-02-16T10:30:19.185Z,93050.28
2023-02-16T10:32:56.758Z,93050.28
2023-02-16T10:35:37.785Z,93038.91
2023-02-16T10:38:17.637Z,93031.91
2023-02-16T10:40:59.020Z,93026.19
2023-02-16T10:43:41.792Z,93038.44
2023-02-16T10:46:21.770Z,93029.09
2023-02-16T10:48:55.913Z,93032.22
2023-02-16T10:51:32.557Z,93039.03
2023-02-16T10:54:10.442Z,93032.53
2023-02-16T10:56:50.041Z,93021.59
2023-02-16T10:59:24.203Z,93019.78
2023-02-16T11:01:58.412Z,93017.44
2023-02-16T11:04:36.057Z,93002.09
2023-02-16T11:07:10.368Z,93005.69
2023-02-16T11:09:44.500Z,93008.81
2023-02-16T11:12:26.891Z,92988.22
2023-02-16T11:15:02.898Z,93005.63
2023-02-16T11:17:49.510Z,93004.59
2023-02-16T11:20:28.487Z,92992.31
2023-02-16T11:23:14.417Z,92999.06
2023-02-16T11:25:55.464Z,92988.94
2023-02-16T11:28:32.554Z,92994.44
2023-02-16T11:31:13.723Z,92990.72
2023-02-16T11:33:57.386Z,92984.16
2023-02-16T11:36:34.818Z,92983.13
2023-02-16T11:39:16.955Z,92986.56
2023-02-16T11:41:51.500Z,92983.09
2023-02-16T11:44:28.798Z,92978.31
2023-02-16T11:47:04.107Z,92981.91
2023-02-16T11:49:39.336Z,92979.75
2023-02-16T11:52:26.463Z,92982.31
2023-02-16T11:55:01.634Z,92971.31
2023-02-16T11:57:36.724Z,92968.25
2023-02-16T12:00:16.068Z,92964.16
2023-02-16T12:03:18.474Z,92972.03
2023-02-16T12:06:06.272Z,92966.09
2023-02-16T12:09:01.863Z,92969.69
2023-02-16T12:11:44.811Z,92968.88
2023-02-16T12:14:28.701Z,92957.66
2023-02-16T12:17:18.640Z,92963.66
2023-02-16T12:19:56.700Z,92954.56
2023-02-16T12:22:37.317Z,92958.44
2023-02-16T12:25:23.238Z,92950.75
2023-02-16T12:28:05.293Z,92943.84
2023-02-16T12:30:52.375Z,92941.81
2023-02-16T12:33:38.363Z,92938.53
2023-02-16T12:36:52.639Z,92939.00
2023-02-16T12:39:31.476Z,92937.06
2023-02-16T12:42:23.488Z,92933.06
2023-02-16T12:44:59.320Z,92926.84
2023-02-16T12:47:37.234Z,92925.88
2023-02-16T12:50:18.268Z,92922.25
2023-02-16T12:52:55.138Z,92924.25
2023-02-16T12:55:32.511Z,92922.91
2023-02-16T12:58:17.138Z,92920.38
2023-02-16T13:00:52.837Z,92916.19
2023-02-16T13:03:33.323Z,92916.16
2023-02-16T13:06:14.432Z,92909.19
2023-02-16T13:08:52.704Z,92915.22
2023-02-16T13:11:30.198Z,92917.78
2023-02-16T13:14:06.518Z,92914.19
2023-02-16T13:16:44.827Z,92909.38
2023-02-16T13:19:17.820Z,92915.69
2023-02-16T13:22:13.641Z,92904.47
2023-02-16T13:24:58.965Z,92899.69
2023-02-16T13:27:42.217Z,92897.91
2023-02-16T13:30:54.230Z,92892.28
2023-02-16T13:33:49.313Z,92891.81
2023-02-16T13:36:41.861Z,92885.66
2023-02-16T13:39:30.086Z,92891.47
2023-02-16T13:42:37.799Z,92882.03
2023-02-16T13:45:17.743Z,92883.56
2023-02-16T13:47:52.893Z,92877.34
2023-02-16T13:50:30.314Z,92885.59
2023-02-16T13:53:17.181Z,92880.03
2023-02-16T13:56:10.881Z,92881.66
2023-02-16T13:58:43.945Z,92882.00
2023-02-16T14:01:39.700Z,92876.34
2023-02-16T14:04:40.678Z,92879.16
2023-02-16T14:07:32.561Z,92877.34
2023-02-16T14:10:12.366Z,92876.50
2023-02-16T14:12:44.760Z,92876.16
2023-02-16T14:15:20.254Z,92871.84
2023-02-16T14:17:52.719Z,92869.91
2023-02-16T14:20:29.128Z,92872.84
2023-02-16T14:23:01.784Z,92874.31
2023-02-16T14:25:39.309Z,92873.81
2023-02-16T14:28:45.047Z,92874.81
2023-02-16T14:31:22.141Z,92868.88
2023-02-16T14:34:03.471Z,92873.88
2023-02-16T14:37:26.995Z,92871.25
2023-02-16T14:40:21.577Z,92871.13
2023-02-16T14:42:57.908Z,92873.44
2023-02-16T14:45:55.396Z,92872.00
2023-02-16T14:48:47.726Z,92868.91
2023-02-16T14:51:50.266Z,92873.97
2023-02-16T14:54:47.082Z,92872.41
2023-02-16T14:57:23.654Z,92855.13
2023-02-16T15:00:00.209Z,92869.91
2023-02-16T15:02:35.403Z,92869.69
2023-02-16T15:05:17.067Z,92870.25
2023-02-16T15:07:52.019Z,92870.03
2023-02-16T15:10:27.822Z,92873.97
2023-02-16T15:13:00.427Z,92872.75
2023-02-16T15:15:43.399Z,92869.91
2023-02-16T15:18:19.370Z,92867.88
2023-02-16T15:20:56.653Z,92871.53
2023-02-16T15:23:31.612Z,92869.84
2023-02-16T15:26:07.629Z,92870.97
2023-02-16T15:28:41.433Z,92877.06
2023-02-16T15:31:17.329Z,92875.63
2023-02-16T15:33:56.300Z,92875.44
2023-02-16T15:36:34.644Z,92876.97
2023-02-16T15:39:09.046Z,92881.53
2023-02-16T15:41:45.200Z,92877.53
2023-02-16T15:44:29.124Z,92875.59
2023-02-16T15:47:08.499Z,92873.34
2023-02-16T15:49:41.328Z,92872.44
2023-02-16T15:52:17.718Z,92883.94
2023-02-16T15:54:50.491Z,92870.47
2023-02-16T15:57:30.047Z,92877.75
2023-02-16T16:00:08.354Z,92883.22
2023-02-16T16:02:49.093Z,92891.78
2023-02-16T16:05:24.452Z,92892.56
2023-02-16T16:08:00.056Z,92890.75
2023-02-16T16:10:35.746Z,92896.22
2023-02-16T16:13:17.466Z,92900.63
2023-02-16T16:15:50.953Z,92895.66
2023-02-16T16:18:42.571Z,92906.03
2023-02-16T16:21:22.233Z,92901.59
2023-02-16T16:24:04.411Z,92897.88
2023-02-16T16:26:52.409Z,92897.31
2023-02-16T16:29:34.342Z,92894.13
2023-02-16T16:32:18.020Z,92900.88
2023-02-16T16:34:51.041Z,92904.19
2023-02-16T16:37:28.846Z,92905.97
2023-02-16T16:40:05.857Z,92906.66
2023-02-16T16:42:38.737Z,92904.22
2023-02-16T16:45:36.749Z,92917.75
2023-02-16T16:48:14.465Z,92913.28
2023-02-16T16:50:48.306Z,92916.00
2023-02-16T16:53:45.064Z,92920.06
2023-02-16T16:56:18.401Z,92916.88
2023-02-16T16:58:51.835Z,92912.88
2023-02-16T17:01:26.347Z,92907.09
2023-02-16T17:03:59.264Z,92918.19
2023-02-16T17:06:31.742Z,92914.72
2023-02-16T17:09:05.016Z,92916.75
2023-02-16T17:11:38.413Z,92920.59
2023-02-16T17:14:16.023Z,92923.09
2023-02-16T17:16:50.540Z,92917.22
2023-02-16T17:19:23.559Z,92918.63
2023-02-16T17:21:56.339Z,92920.47
2023-02-16T17:24:28.649Z,92918.47
2023-02-16T17:27:01.873Z,92921.78
2023-02-16T17:29:34.245Z,92917.31
2023-02-16T17:32:06.771Z,92922.47
2023-02-16T17:34:39.149Z,92927.34
2023-02-16T17:37:11.866Z,92922.44
2023-02-16T17:39:44.141Z,92931.75
2023-02-16T17:42:17.205Z,92928.78
2023-02-16T17:44:49.540Z,92925.56
2023-02-16T17:47:22.293Z,92935.41
2023-02-16T17:49:54.622Z,92932.84
2023-02-16T17:52:27.098Z,92907.72
2023-02-16T17:54:59.465Z,92937.38
2023-02-16T17:57:32.498Z,92936.84
2023-02-16T18:00:07.558Z,92941.81
2023-02-16T18:02:39.926Z,92933.09
2023-02-16T18:05:12.381Z,92936.34
2023-02-16T18:07:44.771Z,92930.88
2023-02-16T18:10:31.345Z,92929.84
2023-02-16T18:13:04.884Z,92931.66
2023-02-16T18:15:38.161Z,92927.97
2023-02-16T18:18:12.239Z,92939.31
2023-02-16T18:20:44.874Z,92938.53
2023-02-16T18:23:17.695Z,92935.09
2023-02-16T18:25:50.138Z,92941.28
2023-02-16T18:28:27.952Z,92938.91
2023-02-16T18:31:01.026Z,92934.69
2023-02-16T18:33:33.969Z,92930.53
2023-02-16T18:36:07.499Z,92931.53
2023-02-16T18:38:39.976Z,92929.75
2023-02-16T18:41:13.185Z,92927.41
2023-02-16T18:43:46.211Z,92927.06
2023-02-16T18:46:18.693Z,92920.47
2023-02-16T18:48:51.134Z,92932.84
2023-02-16T18:51:25.326Z,92935.56
2023-02-16T18:53:57.916Z,92933.13
2023-02-16T18:56:30.370Z,92937.06
2023-02-16T18:59:03.882Z,92932.56
2023-02-16T19:01:36.352Z,92932.63
2023-02-16T19:04:09.103Z,92924.34
2023-02-16T19:06:41.759Z,92929.41
2023-02-16T19:09:14.167Z,92928.28
2023-02-16T19:11:46.934Z,92926.50
2023-02-16T19:14:20.410Z,92925.06
2023-02-16T19:16:52.789Z,92924.41
2023-02-16T19:19:25.210Z,92921.94
2023-02-16T19:21:57.591Z,92921.94
2023-02-16T19:24:30.688Z,92921.94
2023-02-16T19:27:03.344Z,92925.00
2023-02-16T19:29:36.558Z,92920.84
2023-02-16T19:32:08.970Z,92926.88
2023-02-16T19:34:41.365Z,92930.38
2023-02-16T19:37:14.216Z,92919.19
2023-02-16T19:39:46.680Z,92919.75
2023-02-16T19:42:20.329Z,92918.63
2023-02-16T19:44:53.744Z,92914.03
2023-02-16T19:47:26.150Z,92916.38
2023-02-16T19:49:58.670Z,92918.41
2023-02-16T19:52:31.079Z,92912.66
2023-02-16T19:55:03.730Z,92915.47
2023-02-16T19:57:36.093Z,92926.09
2023-02-16T20:00:12.747Z,92925.91
2023-02-16T20:02:45.107Z,92932.13
2023-02-16T20:05:17.753Z,92934.13
2023-02-16T20:07:50.090Z,92941.31
2023-02-16T20:10:22.524Z,92929.53
2023-02-16T20:12:54.896Z,92926.97
2023-02-16T20:15:28.179Z,92922.81
2023-02-16T20:18:00.960Z,92921.94
2023-02-16T20:20:33.505Z,92930.06
2023-02-16T20:23:06.598Z,92924.44
2023-02-16T20:25:39.786Z,92921.53
2023-02-16T20:28:12.159Z,92922.53
2023-02-16T20:30:45.473Z,92921.41
2023-02-16T20:33:18.948Z,92921.41
2023-02-16T20:35:51.951Z,92921.41
2023-02-16T20:38:24.321Z,92920.41
2023-02-16T20:40:56.787Z,92918.69
2023-02-16T20:43:29.749Z,92916.00
2023-02-16T20:46:03.671Z,92919.56
2023-02-16T20:48:36.197Z,92910.44
2023-02-16T20:51:08.920Z,92912.31
2023-02-16T20:53:41.394Z,92920.53
2023-02-16T20:56:16.726Z,92909.34
2023-02-16T20:58:50.661Z,92919.41
2023-02-16T21:01:26.318Z,92919.63
2023-02-16T21:03:59.941Z,92914.28
2023-02-16T21:06:33.361Z,92919.88
2023-02-16T21:09:07.796Z,92923.00
2023-02-16T21:11:40.367Z,92917.44
2023-02-16T21:14:13.103Z,92910.72
2023-02-16T21:16:46.076Z,92914.41
2023-02-16T21:19:23.306Z,92919.88
2023-02-16T21:21:55.980Z,92922.25
2023-02-16T21:24:28.500Z,92908.47
2023-02-16T21:27:01.517Z,92919.09
2023-02-16T21:29:33.930Z,92916.97
2023-02-16T21:32:07.227Z,92919.94
2023-02-16T21:34:39.687Z,92923.53
2023-02-16T21:37:12.204Z,92924.94
2023-02-16T21:40:02.834Z,92926.50
2023-02-16T21:42:35.458Z,92931.13
2023-02-16T21:45:16.453Z,92930.66
2023-02-16T21:48:07.989Z,92926.13
2023-02-16T21:50:41.387Z,92939.84
2023-02-16T21:53:13.867Z,92931.06
2023-02-16T21:56:04.991Z,92938.78
2023-02-16T21:58:37.506Z,92938.97
2023-02-16T22:01:10.098Z,92926.72
2023-02-16T22:03:43.154Z,92926.50
2023-02-16T22:06:15.839Z,92928.28
2023-02-16T22:08:48.521Z,92924.16
2023-02-16T22:11:21.459Z,92921.81
2023-02-16T22:13:54.762Z,92921.59
2023-02-16T22:16:29.183Z,92925.72
2023-02-16T22:19:07.250Z,92933.47
2023-02-16T22:21:42.438Z,92929.34
2023-02-16T22:24:17.516Z,92917.38
2023-02-16T22:26:50.589Z,92924.28
2023-02-16T22:29:23.201Z,92914.34
2023-02-16T22:31:55.602Z,92915.19
2023-02-16T22:34:28.762Z,92912.63
2023-02-16T22:37:01.754Z,92916.00
2023-02-16T22:39:34.067Z,92911.88
2023-02-16T22:42:06.380Z,92916.28
2023-02-16T22:44:38.760Z,92915.44
2023-02-16T22:47:11.107Z,92904.88
2023-02-16T22:49:44.154Z,92912.97
2023-02-16T22:52:16.501Z,92910.41
2023-02-16T22:54:50.811Z,92906.22
2023-02-16T22:57:23.186Z,92907.59
2023-02-16T22:59:55.589Z,92901.44
2023-02-16T23:02:28.034Z,92907.00
2023-02-16T23:05:01.504Z,92901.13
2023-02-16T23:07:35.136Z,92895.28
2023-02-16T23:10:08.107Z,92898.25
2023-02-16T23:12:40.502Z,92898.91
2023-02-16T23:15:12.817Z,92895.19
2023-02-16T23:17:45.197Z,92897.38
2023-02-16T23:20:18.395Z,92898.66
2023-02-16T23:22:50.846Z,92896.19
2023-02-16T23:25:35.247Z,92897.75
2023-02-16T23:28:07.648Z,92896.66
2023-02-16T23:30:42.227Z,92899.69
2023-02-16T23:33:14.673Z,92891.72
2023-02-16T23:35:47.653Z,92892.47
2023-02-16T23:38:20.147Z,92897.84
2023-02-16T23:40:56.582Z,92894.72
2023-02-16T23:43:29.669Z,92888.13
2023-02-16T23:46:02.349Z,92878.84
2023-02-16T23:48:35.098Z,92877.19
2023-02-16T23:51:09.453Z,92875.25
2023-02-16T23:53:43.044Z,92875.97
2023-02-16T23:56:17.465Z,92871.84
2023-02-16T23:58:50.328Z,92866.66
